DLH431 EDDM-VHHH
Flight info
| Callsign | DLH431 |
|---|---|
| Flight time | N/A |
| Altitude | 23000 |
| Route | KIRDI2E/08R KIRDI DCT BUWOQ/N0483F330 DCT OBFEZ DCT STEIN DCT SIRDU DCT GITAS DCT BOKSI DCT TEGRI DCT UDROS/N0476F350 UN743 GAKSU UT310 SIN UN644 ROLIN DCT FOQUS DCT LAGAS DCT DISKA M737 VERCA M747 SUBUT T916 BALUN/K0891F350 T916 KUNAS N193 EKDUP/K0896F370 N193 SR L163 TISIB L141 KAMUD/K0891S1130 W186 SADAN Y1 NUPNI/K0883S1190 Y1 OMBON W245 OVRAL B330 KWE W181 DUDIT A599 POU R473 SIERA |
| Aircraft | A346/H-SDE2E3FGHIJ3J4J5M1RWXY/LB1D1 |
Departure
| Time | 2026-04-30 18:18 |
|---|---|
| Airport | Munich Airport (EDDM) |
Arrival
| Time | N/A |
|---|---|
| Airport | Hong Kong International Airport (VHHH) |
| Time | Latitude | Longitude | Altitude | Speed | Heading |
|---|---|---|---|---|---|
| 2026-04-30 17:44 | 48.35307 | 11.79348 | 1484 ft | 0 kts | 263° |
| 2026-04-30 18:02 | 48.35307 | 11.79361 | 1484 ft | 2 kts | 264° |
| 2026-04-30 18:03 | 48.35312 | 11.79423 | 1484 ft | 0 kts | 264° |
| 2026-04-30 18:04 | 48.35336 | 11.79471 | 1484 ft | 2 kts | 195° |
| 2026-04-30 18:05 | 48.35353 | 11.79472 | 1483 ft | 0 kts | 173° |
| 2026-04-30 18:07 | 48.35218 | 11.79497 | 1484 ft | 10 kts | 173° |
| 2026-04-30 18:08 | 48.34969 | 11.79541 | 1484 ft | 13 kts | 174° |
| 2026-04-30 18:09 | 48.34761 | 11.79232 | 1486 ft | 14 kts | 264° |
| 2026-04-30 18:10 | 48.34716 | 11.78609 | 1489 ft | 15 kts | 263° |
| 2026-04-30 18:11 | 48.34664 | 11.77928 | 1490 ft | 17 kts | 264° |
| 2026-04-30 18:11 | 48.34622 | 11.77390 | 1492 ft | 17 kts | 264° |
| 2026-04-30 18:12 | 48.34581 | 11.76848 | 1493 ft | 17 kts | 263° |
| 2026-04-30 18:13 | 48.34553 | 11.76479 | 1494 ft | 17 kts | 264° |
| 2026-04-30 18:13 | 48.34515 | 11.75987 | 1495 ft | 17 kts | 264° |
| 2026-04-30 18:14 | 48.34480 | 11.75552 | 1496 ft | 17 kts | 263° |
| 2026-04-30 18:15 | 48.34435 | 11.75022 | 1498 ft | 15 kts | 250° |
| 2026-04-30 18:15 | 48.34183 | 11.74979 | 1499 ft | 13 kts | 140° |
| 2026-04-30 18:16 | 48.34091 | 11.75146 | 1499 ft | 6 kts | 124° |
| 2026-04-30 18:16 | 48.34085 | 11.75315 | 1498 ft | 36 kts | 85° |
| 2026-04-30 18:17 | 48.34135 | 11.76009 | 1497 ft | 95 kts | 84° |
| 2026-04-30 18:17 | 48.34233 | 11.77264 | 1494 ft | 144 kts | 85° |
| 2026-04-30 18:17 | 48.34515 | 11.80961 | 1836 ft | 191 kts | 85° |
| 2026-04-30 18:18 | 48.34647 | 11.82858 | 2503 ft | 180 kts | 85° |
| 2026-04-30 18:18 | 48.34777 | 11.84705 | 3007 ft | 182 kts | 84° |
| 2026-04-30 18:18 | 48.34919 | 11.86619 | 3429 ft | 189 kts | 84° |
| 2026-04-30 18:18 | 48.35077 | 11.88636 | 3679 ft | 206 kts | 83° |
| 2026-04-30 18:19 | 48.35255 | 11.90868 | 4106 ft | 217 kts | 83° |
| 2026-04-30 18:19 | 48.35254 | 11.93135 | 4766 ft | 220 kts | 98° |
| 2026-04-30 18:19 | 48.34805 | 11.95376 | 5229 ft | 233 kts | 110° |
| 2026-04-30 18:19 | 48.34134 | 11.97692 | 5600 ft | 248 kts | 112° |
| 2026-04-30 18:20 | 48.33425 | 12.00081 | 6186 ft | 254 kts | 112° |
| 2026-04-30 18:20 | 48.32739 | 12.02532 | 6821 ft | 257 kts | 105° |
| 2026-04-30 18:20 | 48.32310 | 12.05155 | 7499 ft | 259 kts | 100° |
| 2026-04-30 18:20 | 48.31954 | 12.07823 | 8151 ft | 262 kts | 99° |
| 2026-04-30 18:21 | 48.31593 | 12.10495 | 8753 ft | 266 kts | 99° |
| 2026-04-30 18:21 | 48.31211 | 12.13233 | 9373 ft | 269 kts | 100° |
| 2026-04-30 18:21 | 48.30817 | 12.15980 | 9961 ft | 273 kts | 99° |
| 2026-04-30 18:21 | 48.30409 | 12.18775 | 10570 ft | 275 kts | 100° |
| 2026-04-30 18:22 | 48.29987 | 12.21626 | 10927 ft | 288 kts | 99° |
| 2026-04-30 18:22 | 48.29076 | 12.27744 | 11461 ft | 317 kts | 100° |
| 2026-04-30 18:22 | 48.28582 | 12.31040 | 11723 ft | 331 kts | 100° |
| 2026-04-30 18:23 | 48.28065 | 12.34460 | 11975 ft | 346 kts | 100° |
| 2026-04-30 18:23 | 48.27520 | 12.38056 | 12246 ft | 359 kts | 100° |
| 2026-04-30 18:23 | 48.26959 | 12.41741 | 12721 ft | 366 kts | 99° |
| 2026-04-30 18:23 | 48.26391 | 12.45448 | 13332 ft | 369 kts | 99° |
| 2026-04-30 18:24 | 48.25233 | 12.53009 | 14526 ft | 375 kts | 99° |
| 2026-04-30 18:24 | 48.24645 | 12.56846 | 15093 ft | 378 kts | 99° |
| 2026-04-30 18:24 | 48.24057 | 12.60663 | 15661 ft | 380 kts | 98° |
| 2026-04-30 18:25 | 48.23456 | 12.64574 | 16243 ft | 382 kts | 98° |
| 2026-04-30 18:25 | 48.22252 | 12.72352 | 17340 ft | 388 kts | 99° |
| 2026-04-30 18:25 | 48.21638 | 12.76309 | 17857 ft | 391 kts | 98° |
| 2026-04-30 18:26 | 48.20884 | 12.84400 | 18911 ft | 391 kts | 89° |
| 2026-04-30 18:26 | 48.20840 | 12.88480 | 19438 ft | 391 kts | 85° |
| 2026-04-30 18:26 | 48.20893 | 12.92515 | 19973 ft | 392 kts | 84° |
| 2026-04-30 18:27 | 48.21019 | 13.00727 | 21009 ft | 395 kts | 84° |
| 2026-04-30 18:27 | 48.21082 | 13.04900 | 21508 ft | 397 kts | 84° |
| 2026-04-30 18:28 | 48.21197 | 13.13178 | 22468 ft | 401 kts | 84° |
| 2026-04-30 18:28 | 48.21253 | 13.17379 | 22934 ft | 403 kts | 84° |
| 2026-04-30 18:28 | 48.21358 | 13.25786 | 23848 ft | 406 kts | 83° |
| 2026-04-30 18:29 | 48.21408 | 13.29993 | 24308 ft | 407 kts | 83° |
| 2026-04-30 18:29 | 48.21554 | 13.42822 | 25589 ft | 412 kts | 83° |
| 2026-04-30 18:30 | 48.21629 | 13.50022 | 26300 ft | 414 kts | 83° |
| 2026-04-30 18:30 | 48.21727 | 13.60068 | 27185 ft | 417 kts | 83° |
| 2026-04-30 18:31 | 48.21764 | 13.64435 | 27550 ft | 419 kts | 83° |
| 2026-04-30 18:31 | 48.21840 | 13.73165 | 28302 ft | 421 kts | 83° |
| 2026-04-30 18:32 | 48.21906 | 13.81949 | 29034 ft | 423 kts | 83° |
| 2026-04-30 18:32 | 48.21934 | 13.86314 | 29537 ft | 421 kts | 83° |
| 2026-04-30 18:32 | 48.21577 | 13.95028 | 30521 ft | 423 kts | 91° |
| 2026-04-30 18:33 | 48.21045 | 13.99388 | 30981 ft | 425 kts | 95° |
| 2026-04-30 18:33 | 48.19318 | 14.07861 | 31708 ft | 433 kts | 103° |
| 2026-04-30 18:33 | 48.18148 | 14.12015 | 31941 ft | 438 kts | 104° |
| 2026-04-30 18:34 | 48.16929 | 14.16233 | 32109 ft | 441 kts | 104° |
| 2026-04-30 18:34 | 48.14468 | 14.24644 | 32608 ft | 443 kts | 105° |
| 2026-04-30 18:34 | 48.13238 | 14.28829 | 32812 ft | 444 kts | 105° |
| 2026-04-30 18:35 | 48.12000 | 14.33039 | 32997 ft | 446 kts | 105° |
| 2026-04-30 18:35 | 48.10751 | 14.37272 | 33181 ft | 447 kts | 105° |
| 2026-04-30 18:35 | 48.09499 | 14.41516 | 33340 ft | 449 kts | 105° |
| 2026-04-30 18:36 | 48.05703 | 14.54316 | 33391 ft | 451 kts | 105° |
| 2026-04-30 18:37 | 48.01874 | 14.67171 | 33385 ft | 456 kts | 106° |
| 2026-04-30 18:37 | 47.99297 | 14.75779 | 33393 ft | 457 kts | 106° |
| 2026-04-30 18:38 | 47.96706 | 14.84408 | 33385 ft | 456 kts | 106° |
| 2026-04-30 18:38 | 47.94132 | 14.92951 | 33375 ft | 456 kts | 106° |
| 2026-04-30 18:39 | 47.91530 | 15.01558 | 33371 ft | 457 kts | 106° |
| 2026-04-30 18:39 | 47.88904 | 15.10227 | 33368 ft | 456 kts | 106° |
| 2026-04-30 18:40 | 47.86302 | 15.18779 | 33361 ft | 458 kts | 107° |
| 2026-04-30 18:40 | 47.83677 | 15.27376 | 33352 ft | 459 kts | 107° |